Time;durP1;ratioP1;P1;durP2;ratioP2;P2;SDS_P1;SDS_P2;PMS_P1;PMS_P2;Temp;Humidity;BMP_temperature;BMP_pressure;BME280_temperature;BME280_humidity;BME280_pressure;Samples;Min_cycle;Max_cycle;Signal;HPM_P1;HPM_P2
2022/09/18 04:02:05;;;;;;;4.77;2.50;;;10.00;99.90;;;;;;5317969;22;20584;-75
2022/09/18 04:04:32;;;;;;;2.87;2.67;;;10.00;99.90;;;;;;5031768;28;20450;-75
2022/09/18 04:06:59;;;;;;;4.23;2.63;;;10.00;99.90;;;;;;5033376;28;20453;-74
2022/09/18 04:09:25;;;;;;;3.40;2.60;;;10.10;99.90;;;;;;5035731;28;20462;-74
2022/09/18 04:11:52;;;;;;;6.23;2.57;;;10.10;99.90;;;;;;5035631;28;20478;-73
2022/09/18 04:14:21;;;;;;;9.17;3.37;;;10.10;99.90;;;;;;5035837;28;20497;-71
2022/09/18 04:16:48;;;;;;;6.77;2.80;;;10.10;99.90;;;;;;5035361;28;20473;-73
2022/09/18 04:19:16;;;;;;;11.70;3.30;;;10.10;99.90;;;;;;5035787;28;20466;-73
2022/09/18 04:21:43;;;;;;;4.23;2.90;;;10.00;99.90;;;;;;5035097;28;20488;-73
2022/09/18 04:24:10;;;;;;;3.93;2.70;;;10.00;99.90;;;;;;5035566;28;20438;-74
2022/09/18 04:26:37;;;;;;;4.53;2.77;;;10.00;99.90;;;;;;5035471;28;20893;-72
2022/09/18 04:29:05;;;;;;;5.77;2.90;;;10.00;99.90;;;;;;5035181;28;20462;-72
2022/09/18 04:31:32;;;;;;;5.77;2.70;;;10.00;99.90;;;;;;5035504;28;20478;-72
2022/09/18 04:33:59;;;;;;;6.10;2.90;;;9.90;99.90;;;;;;5035152;28;20460;-72
2022/09/18 04:36:27;;;;;;;4.30;2.53;;;10.00;99.90;;;;;;5035187;28;20462;-73
2022/09/18 04:38:53;;;;;;;4.90;3.37;;;10.00;99.90;;;;;;5035168;28;20457;-73
2022/09/18 04:41:20;;;;;;;4.40;2.53;;;10.00;99.90;;;;;;5035020;28;20864;-73
2022/09/18 04:43:47;;;;;;;3.63;3.10;;;10.00;99.90;;;;;;5035035;28;20457;-72
2022/09/18 04:46:14;;;;;;;9.40;2.70;;;9.90;99.90;;;;;;5035117;28;20464;-72
2022/09/18 04:48:41;;;;;;;4.83;3.00;;;10.00;99.90;;;;;;5035292;28;20453;-72
2022/09/18 04:51:08;;;;;;;4.20;2.40;;;10.00;99.90;;;;;;5034856;28;20493;-72
2022/09/18 04:53:36;;;;;;;4.77;2.77;;;10.00;99.90;;;;;;5034950;28;20462;-73
2022/09/18 04:56:03;;;;;;;3.80;2.47;;;10.00;99.90;;;;;;5034539;28;20519;-73
2022/09/18 04:58:30;;;;;;;10.40;2.63;;;10.00;99.90;;;;;;5034994;28;20457;-72
2022/09/18 05:00:57;;;;;;;4.97;2.70;;;9.90;99.90;;;;;;5034595;28;20473;-73
2022/09/18 05:03:24;;;;;;;6.23;3.20;;;9.90;99.90;;;;;;5034721;28;20462;-76
2022/09/18 05:05:51;;;;;;;5.90;2.50;;;9.90;99.90;;;;;;5034505;28;20456;-76
2022/09/18 05:08:18;;;;;;;11.53;2.93;;;9.90;99.90;;;;;;5034878;28;20453;-76
2022/09/18 05:10:46;;;;;;;4.13;2.17;;;9.90;99.90;;;;;;5034628;28;20477;-77
2022/09/18 05:13:13;;;;;;;7.47;2.60;;;9.90;99.90;;;;;;5034468;28;20948;-76
2022/09/18 05:15:40;;;;;;;3.60;2.37;;;9.90;99.90;;;;;;5034183;28;20946;-76
2022/09/18 05:18:07;;;;;;;4.50;2.27;;;9.90;99.90;;;;;;5034138;28;20466;-76
2022/09/18 05:20:35;;;;;;;2.60;2.40;;;9.90;99.90;;;;;;5034823;28;20493;-76
2022/09/18 05:23:02;;;;;;;5.33;2.70;;;9.90;99.90;;;;;;5034295;28;20453;-76
2022/09/18 05:25:29;;;;;;;7.63;3.00;;;9.90;99.90;;;;;;5033810;28;20454;-76
2022/09/18 05:27:59;;;;;;;2.80;2.60;;;9.90;99.90;;;;;;5034186;28;20962;-76
2022/09/18 05:30:27;;;;;;;5.93;2.80;;;9.90;99.90;;;;;;5034291;28;20450;-76
2022/09/18 05:32:55;;;;;;;5.10;2.80;;;9.90;99.90;;;;;;5034430;28;20458;-76
2022/09/18 05:35:22;;;;;;;4.30;3.27;;;9.90;99.90;;;;;;5034067;28;20485;-77
2022/09/18 05:37:50;;;;;;;7.53;3.73;;;9.90;99.90;;;;;;5033927;28;20450;-76
2022/09/18 05:40:17;;;;;;;4.63;3.40;;;9.90;99.90;;;;;;5034167;28;20454;-77
2022/09/18 05:42:47;;;;;;;4.13;3.50;;;9.90;99.90;;;;;;5034156;28;20462;-77
2022/09/18 05:45:16;;;;;;;6.47;3.30;;;9.80;99.90;;;;;;5033731;28;20952;-76
2022/09/18 05:47:43;;;;;;;3.03;2.77;;;9.80;99.90;;;;;;5034002;28;20843;-76
2022/09/18 05:50:10;;;;;;;5.53;3.57;;;9.90;99.90;;;;;;5033895;28;20446;-77
2022/09/18 05:52:37;;;;;;;5.70;3.50;;;9.90;99.90;;;;;;5033614;28;20465;-76
2022/09/18 05:55:04;;;;;;;4.40;3.07;;;10.00;99.90;;;;;;5033675;28;20494;-76
2022/09/18 05:57:30;;;;;;;8.47;3.70;;;10.00;99.90;;;;;;5033778;28;20845;-77
2022/09/18 05:59:57;;;;;;;3.83;3.43;;;10.00;99.90;;;;;;5033998;28;20484;-76
2022/09/18 06:02:25;;;;;;;4.67;3.70;;;10.00;99.90;;;;;;5033951;28;20486;-76
2022/09/18 06:04:52;;;;;;;7.10;4.17;;;10.00;99.90;;;;;;5033505;28;20461;-77
2022/09/18 06:07:19;;;;;;;4.70;3.40;;;10.00;99.90;;;;;;5033798;28;20468;-77
2022/09/18 06:09:46;;;;;;;4.67;4.20;;;10.00;99.90;;;;;;5033514;28;21055;-76
2022/09/18 06:12:12;;;;;;;8.80;4.10;;;10.00;99.90;;;;;;5033324;28;21016;-77
2022/09/18 06:14:39;;;;;;;4.70;3.57;;;10.00;99.90;;;;;;5033107;28;20949;-77
2022/09/18 06:17:06;;;;;;;6.50;4.40;;;9.90;99.90;;;;;;5033357;28;20818;-77
2022/09/18 06:19:34;;;;;;;6.83;3.80;;;9.90;99.90;;;;;;5033046;28;20972;-76
2022/09/18 06:22:01;;;;;;;8.40;4.60;;;9.90;99.90;;;;;;5033431;28;20473;-76
2022/09/18 06:24:28;;;;;;;7.17;4.13;;;9.90;99.90;;;;;;5033140;28;20462;-77
2022/09/18 06:26:54;;;;;;;7.27;4.90;;;9.90;99.90;;;;;;5033422;28;20453;-76
2022/09/18 06:29:21;;;;;;;4.90;4.40;;;9.90;99.90;;;;;;5033104;28;20469;-76
2022/09/18 06:31:48;;;;;;;7.73;4.60;;;9.90;99.90;;;;;;5032278;28;20982;-76
2022/09/18 06:34:15;;;;;;;7.53;4.33;;;9.90;99.90;;;;;;5032544;28;20512;-76
2022/09/18 06:36:43;;;;;;;7.20;4.00;;;9.90;99.90;;;;;;5033191;28;20493;-76
2022/09/18 06:39:10;;;;;;;9.03;4.30;;;9.90;99.90;;;;;;5033113;28;20458;-76
2022/09/18 06:41:37;;;;;;;5.30;4.03;;;9.90;99.90;;;;;;5032938;28;20482;-76
2022/09/18 06:44:04;;;;;;;4.27;3.80;;;10.00;99.90;;;;;;5033133;28;20450;-76
2022/09/18 06:46:30;;;;;;;5.10;3.47;;;10.00;99.90;;;;;;5032891;28;20450;-76
2022/09/18 06:48:57;;;;;;;6.20;3.90;;;10.00;99.90;;;;;;5032885;28;20454;-76
2022/09/18 06:51:24;;;;;;;6.57;4.40;;;10.00;99.90;;;;;;5032890;28;20478;-77
2022/09/18 06:53:52;;;;;;;6.77;4.00;;;10.00;99.90;;;;;;5033098;28;20457;-76
2022/09/18 06:56:19;;;;;;;5.33;3.80;;;10.00;99.90;;;;;;5032865;28;20493;-76
2022/09/18 06:58:46;;;;;;;8.93;4.30;;;10.10;99.90;;;;;;5032596;28;20949;-76
2022/09/18 07:01:12;;;;;;;5.67;4.00;;;10.10;99.90;;;;;;5032132;28;20866;-78
2022/09/18 07:03:39;;;;;;;5.50;3.93;;;10.20;99.90;;;;;;5033078;28;20494;-77
2022/09/18 07:06:12;;;;;;;6.50;3.93;;;10.10;99.90;;;;;;5032742;28;20454;-78
2022/09/18 07:08:38;;;;;;;7.57;4.37;;;10.10;99.90;;;;;;5032495;28;20468;-78
2022/09/18 07:11:07;;;;;;;7.00;4.50;;;10.10;99.90;;;;;;5032366;28;20482;-78
2022/09/18 07:13:36;;;;;;;7.30;4.20;;;10.10;99.90;;;;;;5032126;28;20461;-78
2022/09/18 07:16:03;;;;;;;4.80;4.10;;;10.20;99.90;;;;;;5031725;28;20533;-77
2022/09/18 07:18:30;;;;;;;6.53;4.00;;;10.20;99.90;;;;;;5032204;28;20458;-76
2022/09/18 07:20:58;;;;;;;6.00;3.23;;;10.20;99.90;;;;;;5032325;28;20478;-77
2022/09/18 07:23:28;;;;;;;6.10;3.43;;;10.20;99.90;;;;;;5032062;28;20842;-78
2022/09/18 07:25:55;;;;;;;7.60;4.23;;;10.30;99.90;;;;;;5031902;28;20551;-78
2022/09/18 07:28:23;;;;;;;6.33;3.30;;;10.20;99.90;;;;;;5032080;28;20465;-77
2022/09/18 07:30:50;;;;;;;4.60;3.67;;;10.20;99.90;;;;;;5031897;28;21032;-77
2022/09/18 07:33:16;;;;;;;6.10;3.20;;;10.30;99.90;;;;;;5032043;28;20438;-78
2022/09/18 07:35:43;;;;;;;9.63;3.83;;;10.30;99.90;;;;;;5031595;28;20496;-77
2022/09/18 07:38:10;;;;;;;5.00;3.50;;;10.30;99.90;;;;;;5031930;28;20465;-77
2022/09/18 07:40:39;;;;;;;6.63;4.00;;;10.40;99.90;;;;;;5031810;28;21016;-77
2022/09/18 07:43:07;;;;;;;9.53;3.67;;;10.40;99.90;;;;;;5031378;28;20477;-77
2022/09/18 07:45:36;;;;;;;6.23;2.70;;;10.40;99.90;;;;;;5031794;28;20457;-78
2022/09/18 07:48:04;;;;;;;7.37;3.07;;;10.40;99.90;;;;;;5032003;28;20462;-77
2022/09/18 07:50:31;;;;;;;4.10;3.70;;;10.40;99.90;;;;;;5031807;28;20524;-77
2022/09/18 07:53:02;;;;;;;9.10;3.43;;;10.40;99.90;;;;;;5031711;28;20544;-77
2022/09/18 07:55:29;;;;;;;3.93;2.97;;;10.40;99.90;;;;;;5031255;28;20532;-77
2022/09/18 07:57:57;;;;;;;3.97;3.00;;;10.40;99.90;;;;;;5031885;28;20454;-77
2022/09/18 08:00:25;;;;;;;5.63;2.90;;;10.40;99.90;;;;;;5031666;28;20465;-77
2022/09/18 08:03:02;;;;;;;7.90;2.80;;;10.50;99.90;;;;;;5032035;28;20496;-77
2022/09/18 08:05:30;;;;;;;6.33;2.50;;;10.50;99.90;;;;;;5031703;28;20871;-77
2022/09/18 08:08:01;;;;;;;4.47;2.70;;;10.50;99.90;;;;;;5031597;28;20504;-77
2022/09/18 08:10:28;;;;;;;3.53;2.37;;;10.50;99.90;;;;;;5031670;28;20458;-77
2022/09/18 08:12:54;;;;;;;3.80;2.40;;;10.50;99.90;;;;;;5031875;28;20454;-77
2022/09/18 08:15:21;;;;;;;6.53;2.60;;;10.60;99.90;;;;;;5031507;28;20504;-78
2022/09/18 08:17:56;;;;;;;4.10;2.60;;;10.60;99.90;;;;;;5031781;28;20450;-77
2022/09/18 08:20:24;;;;;;;4.27;2.40;;;10.60;99.90;;;;;;5031189;28;20457;-76
2022/09/18 08:22:51;;;;;;;3.30;2.50;;;10.60;99.90;;;;;;5031789;28;20456;-76
2022/09/18 08:25:19;;;;;;;3.00;2.60;;;10.60;99.90;;;;;;5031391;28;20453;-76
2022/09/18 08:27:46;;;;;;;4.90;2.50;;;10.60;99.90;;;;;;5031397;28;20942;-76
2022/09/18 08:30:14;;;;;;;9.30;2.70;;;10.70;99.90;;;;;;5031421;28;20453;-76
2022/09/18 08:32:41;;;;;;;4.03;2.20;;;10.70;99.90;;;;;;5031427;28;20458;-76
2022/09/18 08:35:11;;;;;;;4.23;2.60;;;10.70;99.90;;;;;;5030863;28;20485;-76
2022/09/18 08:37:47;;;;;;;4.60;3.10;;;10.70;99.90;;;;;;5031430;28;20465;-77
2022/09/18 08:40:14;;;;;;;2.73;2.47;;;10.70;99.90;;;;;;5031197;28;20515;-76
2022/09/18 08:42:48;;;;;;;7.00;2.63;;;10.70;99.90;;;;;;5031544;28;20469;-77
2022/09/18 08:45:37;;;;;;;3.73;2.63;;;10.70;99.90;;;;;;5030850;28;20981;-78
2022/09/18 08:48:11;;;;;;;5.60;2.33;;;10.70;99.90;;;;;;5031367;28;20497;-77
2022/09/18 08:50:42;;;;;;;2.63;2.30;;;10.70;99.90;;;;;;5031332;28;20489;-77
2022/09/18 08:53:17;;;;;;;5.77;1.97;;;10.70;99.90;;;;;;5031576;28;20456;-77
2022/09/18 08:55:47;;;;;;;2.50;2.20;;;10.80;99.90;;;;;;5034347;28;20489;-77
2022/09/18 08:58:16;;;;;;;6.30;2.00;;;10.80;99.90;;;;;;5034982;28;20469;-78
2022/09/18 09:00:46;;;;;;;5.33;2.70;;;10.80;99.90;;;;;;5034719;28;20495;-77
2022/09/18 09:03:22;;;;;;;4.30;2.10;;;10.80;99.90;;;;;;5034991;28;20462;-78
2022/09/18 09:05:53;;;;;;;3.13;2.13;;;10.90;99.90;;;;;;5034778;28;20488;-77
2022/09/18 09:08:39;;;;;;;4.80;2.90;;;11.00;99.90;;;;;;5034357;28;20575;-77
2022/09/18 09:11:13;;;;;;;5.73;2.37;;;11.00;99.90;;;;;;5034592;28;20516;-77
2022/09/18 09:14:02;;;;;;;6.03;2.20;;;11.10;99.90;;;;;;5034489;28;20485;-77
2022/09/18 09:16:40;;;;;;;2.10;2.00;;;11.10;99.90;;;;;;5034353;28;20485;-77
2022/09/18 09:19:20;;;;;;;3.90;2.13;;;11.10;99.90;;;;;;5034737;28;20446;-77
2022/09/18 09:21:54;;;;;;;5.10;2.33;;;11.20;99.90;;;;;;5034208;28;20978;-77
2022/09/18 09:24:31;;;;;;;2.40;1.97;;;11.20;99.90;;;;;;5034485;28;20445;-77
2022/09/18 09:27:02;;;;;;;6.13;2.30;;;11.30;99.90;;;;;;5034167;28;20453;-77
2022/09/18 09:29:32;;;;;;;3.43;2.10;;;11.30;99.90;;;;;;5034471;28;20559;-77
2022/09/18 09:32:04;;;;;;;6.53;2.60;;;11.30;99.90;;;;;;5034219;28;20803;-77
2022/09/18 09:34:35;;;;;;;4.60;2.63;;;11.30;99.90;;;;;;5033952;28;20492;-77
2022/09/18 09:37:06;;;;;;;3.40;2.30;;;11.40;99.90;;;;;;5034350;28;20528;-76
2022/09/18 09:39:39;;;;;;;3.03;2.10;;;11.40;99.90;;;;;;5033910;28;20902;-77
2022/09/18 09:42:12;;;;;;;4.60;2.30;;;11.50;99.90;;;;;;5034205;28;20536;-77
2022/09/18 09:44:45;;;;;;;4.93;2.30;;;11.50;99.90;;;;;;5034098;28;20536;-78
2022/09/18 09:47:26;;;;;;;4.37;2.40;;;11.50;99.90;;;;;;5034246;28;20442;-77
2022/09/18 09:50:06;;;;;;;4.00;2.13;;;11.60;99.90;;;;;;5034186;28;20437;-78
2022/09/18 09:52:33;;;;;;;3.63;2.10;;;11.60;99.90;;;;;;5034071;28;20500;-77
2022/09/18 09:55:21;;;;;;;14.27;2.63;;;11.60;99.90;;;;;;5033799;28;20454;-77
2022/09/18 09:57:58;;;;;;;3.90;2.50;;;11.60;99.90;;;;;;5034344;28;20482;-77
2022/09/18 10:00:25;;;;;;;2.80;2.03;;;11.60;99.90;;;;;;5033535;28;20446;-77
2022/09/18 10:03:22;;;;;;;3.60;2.10;;;11.60;99.90;;;;;;5034025;28;20512;-77
2022/09/18 10:05:56;;;;;;;3.20;1.77;;;11.70;99.90;;;;;;5033427;28;20548;-77
2022/09/18 10:08:32;;;;;;;5.60;2.23;;;11.60;99.90;;;;;;5033548;28;20837;-78
2022/09/18 10:11:02;;;;;;;3.87;2.43;;;11.70;99.90;;;;;;5033651;28;20481;-77
2022/09/18 10:13:33;;;;;;;5.33;2.20;;;11.70;99.90;;;;;;5072630;22;20996;-78
2022/09/18 10:16:04;;;;;;;3.90;2.20;;;11.80;99.90;;;;;;5037465;28;20485;-79
2022/09/18 10:18:34;;;;;;;3.73;2.07;;;11.80;99.90;;;;;;5036659;28;20518;-78
2022/09/18 10:21:07;;;;;;;7.53;2.60;;;11.90;99.90;;;;;;5036093;28;20454;-78
2022/09/18 10:23:41;;;;;;;4.13;2.40;;;11.90;99.90;;;;;;5036570;28;20449;-78
2022/09/18 10:26:17;;;;;;;5.17;2.17;;;11.90;99.90;;;;;;5037223;28;20522;-77
2022/09/18 10:28:44;;;;;;;6.30;1.93;;;12.00;99.90;;;;;;5038214;28;20790;-78
2022/09/18 10:31:13;;;;;;;3.43;1.97;;;12.10;99.90;;;;;;5037888;28;20466;-79
2022/09/18 10:33:41;;;;;;;7.90;2.00;;;12.30;99.90;;;;;;5038552;28;20478;-79
2022/09/18 10:36:22;;;;;;;7.33;1.60;;;12.30;99.90;;;;;;5037837;28;20488;-78
2022/09/18 10:38:50;;;;;;;3.93;2.20;;;12.40;99.90;;;;;;5038276;28;20442;-79
2022/09/18 10:41:27;;;;;;;9.30;2.00;;;12.50;99.90;;;;;;5039523;28;20453;-79
2022/09/18 10:43:58;;;;;;;3.90;2.10;;;12.60;99.90;;;;;;5038096;28;20485;-78
2022/09/18 10:46:29;;;;;;;4.90;1.83;;;12.70;99.90;;;;;;5038433;28;20496;-78
2022/09/18 10:48:58;;;;;;;3.87;1.83;;;12.80;99.90;;;;;;5038769;28;20450;-80
2022/09/18 10:51:29;;;;;;;3.40;1.80;;;12.90;99.90;;;;;;5040121;28;20480;-80
2022/09/18 10:54:04;;;;;;;4.93;1.60;;;13.00;99.90;;;;;;5038202;28;20474;-79
2022/09/18 10:56:33;;;;;;;2.50;1.63;;;13.00;99.90;;;;;;5037411;28;20605;-79
2022/09/18 10:59:28;;;;;;;6.00;1.60;;;13.10;99.90;;;;;;5038517;28;20469;-81
2022/09/18 11:01:56;;;;;;;2.87;1.60;;;13.20;99.90;;;;;;5034690;28;20466;-78
2022/09/18 11:04:24;;;;;;;7.77;1.97;;;13.20;99.90;;;;;;5037590;28;20473;-79
2022/09/18 11:06:51;;;;;;;5.03;1.53;;;13.20;99.90;;;;;;5039147;28;20504;-81
2022/09/18 11:09:21;;;;;;;2.83;1.27;;;13.30;99.90;;;;;;5037899;28;20450;-79
2022/09/18 11:11:50;;;;;;;4.73;1.77;;;13.40;99.90;;;;;;5036775;28;20517;-77
2022/09/18 11:14:19;;;;;;;3.07;1.50;;;13.50;99.90;;;;;;5038907;28;20482;-79
2022/09/18 11:16:49;;;;;;;7.07;2.00;;;13.50;99.90;;;;;;5039185;28;20489;-79
2022/09/18 11:19:26;;;;;;;3.30;1.40;;;13.50;99.90;;;;;;5036474;28;20457;-77
2022/09/18 11:21:55;;;;;;;3.30;1.33;;;13.60;99.90;;;;;;5035912;28;20831;-79
2022/09/18 11:24:24;;;;;;;4.80;1.53;;;13.60;99.90;;;;;;5036562;28;20484;-80
2022/09/18 11:26:54;;;;;;;5.30;1.80;;;13.70;99.90;;;;;;5037205;28;20462;-77
2022/09/18 11:29:27;;;;;;;2.40;1.37;;;13.70;99.90;;;;;;5035643;28;20454;-77
2022/09/18 11:31:56;;;;;;;3.03;1.83;;;13.80;99.90;;;;;;5035012;28;20463;-77
2022/09/18 11:34:27;;;;;;;2.40;1.60;;;13.90;99.90;;;;;;5035453;28;20488;-78
2022/09/18 11:36:58;;;;;;;2.70;1.60;;;14.00;99.90;;;;;;5036236;28;20477;-78
2022/09/18 11:39:30;;;;;;;2.23;1.40;;;14.20;99.90;;;;;;5036348;28;20449;-78
2022/09/18 11:41:58;;;;;;;2.70;1.33;;;14.30;99.90;;;;;;5036217;28;20418;-76
2022/09/18 11:44:30;;;;;;;5.60;2.03;;;14.40;99.90;;;;;;5036492;28;20477;-78
2022/09/18 11:47:19;;;;;;;6.53;1.20;;;14.50;99.90;;;;;;5036566;28;20500;-78
2022/09/18 11:49:49;;;;;;;1.67;1.30;;;14.60;99.90;;;;;;5035721;28;20821;-79
2022/09/18 11:52:21;;;;;;;4.60;1.10;;;14.70;99.90;;;;;;5037486;28;20458;-79
2022/09/18 11:54:51;;;;;;;2.50;1.17;;;14.70;99.90;;;;;;5036429;28;20473;-79
2022/09/18 11:57:24;;;;;;;2.87;1.20;;;14.80;99.90;;;;;;5035556;28;20848;-80
2022/09/18 11:59:56;;;;;;;4.50;1.10;;;14.70;99.90;;;;;;5036949;28;20453;-77
2022/09/18 12:02:40;;;;;;;4.23;1.40;;;14.70;99.90;;;;;;5036783;28;20890;-79
2022/09/18 12:05:17;;;;;;;1.23;1.10;;;14.70;99.90;;;;;;5035109;28;20488;-79
2022/09/18 12:07:55;;;;;;;3.20;1.43;;;14.80;99.90;;;;;;5036454;28;21005;-79
2022/09/18 12:10:31;;;;;;;5.53;1.13;;;14.80;99.90;;;;;;5036767;28;20830;-77
2022/09/18 12:13:18;;;;;;;4.10;1.20;;;14.80;99.90;;;;;;5037406;28;20442;-80
2022/09/18 12:15:50;;;;;;;6.93;1.30;;;14.80;99.90;;;;;;5034872;28;20808;-78
2022/09/18 12:18:24;;;;;;;4.50;1.03;;;14.80;99.90;;;;;;5035840;28;21001;-79
2022/09/18 12:20:57;;;;;;;4.17;1.30;;;14.70;99.90;;;;;;5036360;28;20450;-79
2022/09/18 12:23:25;;;;;;;2.40;1.20;;;14.70;99.90;;;;;;5036157;28;20448;-79
2022/09/18 12:26:04;;;;;;;2.70;1.50;;;14.60;99.90;;;;;;5035982;28;20454;-78
2022/09/18 12:28:41;;;;;;;5.73;1.90;;;14.50;99.90;;;;;;5038541;28;20883;-78
2022/09/18 12:31:14;;;;;;;2.40;1.40;;;14.50;99.90;;;;;;5040451;28;20445;-79
2022/09/18 12:33:49;;;;;;;5.30;1.50;;;14.50;99.90;;;;;;5040446;28;20477;-78
2022/09/18 12:36:37;;;;;;;3.07;1.03;;;14.50;99.90;;;;;;5039759;28;20528;-78
2022/09/18 12:39:27;;;;;;;4.57;1.50;;;14.40;99.90;;;;;;5039834;28;20480;-78
2022/09/18 12:42:07;;;;;;;4.90;1.40;;;14.30;99.90;;;;;;5039832;28;20461;-78
2022/09/18 12:44:48;;;;;;;8.30;2.00;;;14.30;99.90;;;;;;5039667;28;20487;-78
2022/09/18 12:47:42;;;;;;;2.33;1.30;;;14.30;99.90;;;;;;5040197;28;20472;-77
2022/09/18 12:50:28;;;;;;;3.20;2.03;;;14.20;99.90;;;;;;5040379;28;20464;-78
2022/09/18 12:53:05;;;;;;;5.90;1.63;;;14.10;99.90;;;;;;5039721;28;20453;-78
2022/09/18 12:55:46;;;;;;;3.97;1.27;;;14.10;99.90;;;;;;5040503;28;20964;-78
2022/09/18 12:58:30;;;;;;;2.53;1.20;;;14.10;99.90;;;;;;5039643;28;21011;-78
2022/09/18 13:01:02;;;;;;;5.10;1.40;;;14.10;99.90;;;;;;5039779;28;20446;-78
2022/09/18 13:03:33;;;;;;;5.00;1.20;;;14.00;99.90;;;;;;5039723;28;20448;-78
2022/09/18 13:06:06;;;;;;;4.27;1.20;;;14.00;99.90;;;;;;5039341;28;20477;-76
2022/09/18 13:08:37;;;;;;;7.03;1.93;;;14.10;99.90;;;;;;5039608;28;20448;-78
2022/09/18 13:11:10;;;;;;;2.77;1.30;;;14.10;99.90;;;;;;5039642;28;20779;-78
2022/09/18 13:13:44;;;;;;;4.27;1.40;;;14.10;99.90;;;;;;5039913;28;21009;-78
2022/09/18 13:16:15;;;;;;;2.93;1.40;;;14.10;99.90;;;;;;5039781;28;20441;-78
2022/09/18 13:18:48;;;;;;;3.60;1.33;;;14.20;99.90;;;;;;5040478;28;20477;-78
2022/09/18 13:21:25;;;;;;;3.70;1.50;;;14.20;99.90;;;;;;5040180;28;20533;-76
2022/09/18 13:23:54;;;;;;;2.40;1.40;;;14.20;99.90;;;;;;5034199;28;20481;-77
2022/09/18 13:26:23;;;;;;;2.33;1.33;;;14.20;99.90;;;;;;5034204;28;20544;-76
2022/09/18 13:28:50;;;;;;;4.60;1.20;;;14.20;99.90;;;;;;5033989;28;20545;-77
2022/09/18 13:31:30;;;;;;;3.23;1.50;;;14.30;99.90;;;;;;5034103;28;20465;-76
2022/09/18 13:33:59;;;;;;;3.13;1.37;;;14.20;99.90;;;;;;5033809;28;20473;-77
2022/09/18 13:36:29;;;;;;;3.80;1.30;;;14.30;99.90;;;;;;5033927;28;20462;-76
2022/09/18 13:38:59;;;;;;;3.23;1.63;;;14.20;99.90;;;;;;5033249;28;20525;-78
2022/09/18 13:41:27;;;;;;;3.67;1.20;;;14.20;99.90;;;;;;5033553;28;20461;-77
2022/09/18 13:43:58;;;;;;;4.40;1.20;;;14.20;99.90;;;;;;5033744;28;20505;-77
2022/09/18 13:46:33;;;;;;;5.17;1.30;;;14.20;99.90;;;;;;5033740;28;20536;-77
2022/09/18 13:49:03;;;;;;;7.90;1.30;;;14.20;99.90;;;;;;5033517;28;20512;-79
2022/09/18 13:51:34;;;;;;;2.73;1.60;;;14.20;99.90;;;;;;5031530;28;20470;-77
2022/09/18 13:54:28;;;;;;;5.10;1.60;;;14.20;99.90;;;;;;5026600;28;20481;-78
2022/09/18 13:57:20;;;;;;;3.50;1.87;;;14.10;99.90;;;;;;5028253;28;20442;-78
2022/09/18 13:59:53;;;;;;;2.33;1.10;;;14.10;99.90;;;;;;5026864;28;20820;-75
2022/09/18 14:02:30;;;;;;;3.40;1.33;;;14.00;99.90;;;;;;5027242;28;20446;-77
2022/09/18 14:05:28;;;;;;;4.50;1.77;;;14.00;99.90;;;;;;5026495;28;20483;-76
2022/09/18 14:08:06;;;;;;;1.60;1.33;;;13.90;99.90;;;;;;5025823;28;20457;-75
2022/09/18 14:10:37;;;;;;;1.63;1.10;;;13.80;99.90;;;;;;5025800;28;20457;-75
2022/09/18 14:13:41;;;;;;;2.70;1.37;;;13.80;99.90;;;;;;5026039;28;20461;-77
2022/09/18 14:16:29;;;;;;;2.97;1.43;;;13.80;99.90;;;;;;5024833;28;20462;-75
2022/09/18 14:19:07;;;;;;;6.07;1.43;;;13.80;99.90;;;;;;5025695;28;20497;-77
2022/09/18 14:21:40;;;;;;;3.40;1.40;;;13.70;99.90;;;;;;5025676;28;20573;-76
2022/09/18 14:24:36;;;;;;;3.57;1.80;;;13.70;99.90;;;;;;5024946;28;20482;-77
2022/09/18 14:27:33;;;;;;;2.47;1.30;;;13.70;99.90;;;;;;4986657;28;20466;-77
2022/09/18 14:30:02;;;;;;;1.27;1.10;;;13.70;99.90;;;;;;5025244;28;20460;-77
2022/09/18 14:32:30;;;;;;;5.67;1.80;;;13.80;99.90;;;;;;5025443;28;20881;-77
2022/09/18 14:35:22;;;;;;;4.33;1.33;;;13.70;99.90;;;;;;5024673;28;20473;-77
2022/09/18 14:37:49;;;;;;;3.63;1.30;;;13.70;99.90;;;;;;5021260;28;20508;-77
2022/09/18 14:40:20;;;;;;;4.60;1.50;;;13.60;99.90;;;;;;5025419;28;20515;-77
2022/09/18 14:42:47;;;;;;;7.03;1.83;;;13.60;99.90;;;;;;5025261;28;20445;-78
2022/09/18 14:45:27;;;;;;;3.60;1.87;;;13.60;99.90;;;;;;5024264;28;21023;-75
2022/09/18 14:47:54;;;;;;;2.40;1.43;;;13.60;99.90;;;;;;5024382;28;20457;-75
2022/09/18 14:50:28;;;;;;;4.80;1.57;;;13.70;99.90;;;;;;5025090;28;20466;-75
2022/09/18 14:52:56;;;;;;;3.13;1.40;;;13.70;99.90;;;;;;5024471;28;20454;-75
2022/09/18 14:55:28;;;;;;;5.83;1.50;;;13.70;99.90;;;;;;5023899;28;20504;-75
2022/09/18 14:57:58;;;;;;;4.20;1.40;;;13.70;99.90;;;;;;5025062;28;20478;-74
2022/09/18 15:00:28;;;;;;;3.10;1.40;;;13.80;99.90;;;;;;5024917;28;20462;-75
2022/09/18 15:02:58;;;;;;;2.53;1.50;;;13.70;99.90;;;;;;5024912;28;20472;-75
2022/09/18 15:05:28;;;;;;;3.07;1.63;;;13.80;99.90;;;;;;5023514;28;20482;-75
2022/09/18 15:07:59;;;;;;;1.60;1.20;;;13.80;99.90;;;;;;5025460;28;20464;-77
2022/09/18 15:10:27;;;;;;;4.83;1.50;;;13.80;99.90;;;;;;5025538;28;20921;-77
2022/09/18 15:12:56;;;;;;;3.30;1.30;;;13.80;99.90;;;;;;5025239;28;20513;-77
2022/09/18 15:15:31;;;;;;;3.80;1.40;;;13.80;99.90;;;;;;5024558;28;20489;-77
2022/09/18 15:17:59;;;;;;;2.03;1.50;;;13.80;99.90;;;;;;5025342;28;20485;-76
2022/09/18 15:20:28;;;;;;;8.47;1.87;;;13.80;99.90;;;;;;5025654;28;20454;-75
2022/09/18 15:22:55;;;;;;;7.30;1.87;;;13.80;99.90;;;;;;5025649;28;20483;-76
2022/09/18 15:25:25;;;;;;;2.80;1.60;;;13.80;99.90;;;;;;5024304;28;20482;-76
2022/09/18 15:27:53;;;;;;;2.50;1.30;;;13.80;99.90;;;;;;5025581;28;20476;-76
2022/09/18 15:30:21;;;;;;;2.57;1.30;;;13.80;99.90;;;;;;5025371;28;20465;-75
2022/09/18 15:32:52;;;;;;;2.10;1.40;;;13.70;99.90;;;;;;5025073;28;20454;-75
2022/09/18 15:35:21;;;;;;;2.30;1.40;;;13.70;99.90;;;;;;5024478;28;20473;-75
2022/09/18 15:37:54;;;;;;;4.20;1.40;;;13.70;99.90;;;;;;5025011;28;20842;-76
2022/09/18 15:40:38;;;;;;;4.23;2.00;;;13.70;99.90;;;;;;5026881;28;20466;-78
2022/09/18 15:43:25;;;;;;;3.67;1.87;;;13.70;99.90;;;;;;5026170;28;20919;-76
2022/09/18 15:46:02;;;;;;;3.80;2.67;;;13.70;99.90;;;;;;5026264;28;20468;-77
2022/09/18 15:48:35;;;;;;;4.13;1.70;;;13.70;99.90;;;;;;5025881;28;20453;-78
2022/09/18 15:51:08;;;;;;;3.70;1.60;;;13.70;99.90;;;;;;5026492;28;21008;-75
2022/09/18 15:53:37;;;;;;;4.30;1.50;;;13.70;99.90;;;;;;5027224;28;20465;-78
2022/09/18 15:56:17;;;;;;;6.10;1.53;;;13.70;99.90;;;;;;5024769;28;20470;-76
2022/09/18 15:58:50;;;;;;;3.13;1.57;;;13.60;99.90;;;;;;5024396;28;20489;-77
2022/09/18 16:01:22;;;;;;;5.87;1.73;;;13.60;99.90;;;;;;5026187;28;20438;-74
2022/09/18 16:03:56;;;;;;;4.83;1.37;;;13.60;99.90;;;;;;5027404;28;20508;-78
2022/09/18 16:06:27;;;;;;;1.90;1.37;;;13.60;99.90;;;;;;5026523;28;20465;-78
2022/09/18 16:08:56;;;;;;;2.83;1.60;;;13.60;99.90;;;;;;5026660;28;20442;-77
2022/09/18 16:11:44;;;;;;;3.13;1.43;;;13.60;99.90;;;;;;5025301;28;20458;-77
2022/09/18 16:14:37;;;;;;;3.77;1.50;;;13.60;99.90;;;;;;5026023;28;20489;-77
2022/09/18 16:17:35;;;;;;;5.60;1.93;;;13.60;99.90;;;;;;5027211;28;20680;-76
2022/09/18 16:20:22;;;;;;;3.63;1.30;;;13.60;99.90;;;;;;5026180;28;20438;-78
2022/09/18 16:22:49;;;;;;;2.50;1.63;;;13.60;99.90;;;;;;5026294;28;20446;-77
2022/09/18 16:25:21;;;;;;;3.30;1.73;;;13.50;99.90;;;;;;5025486;28;20481;-76
2022/09/18 16:27:50;;;;;;;4.33;1.30;;;13.50;99.90;;;;;;5025871;28;20484;-77
2022/09/18 16:30:17;;;;;;;5.57;1.60;;;13.50;99.90;;;;;;5026121;28;20458;-76
2022/09/18 16:32:44;;;;;;;3.13;1.70;;;13.50;99.90;;;;;;5025981;28;20460;-77
2022/09/18 16:35:13;;;;;;;2.30;1.40;;;13.50;99.90;;;;;;5025834;28;20481;-78
2022/09/18 16:37:40;;;;;;;4.40;1.37;;;13.50;99.90;;;;;;5026402;28;20462;-77
2022/09/18 16:40:16;;;;;;;4.77;1.70;;;13.50;99.90;;;;;;5026170;28;20462;-75
2022/09/18 16:42:44;;;;;;;3.20;1.60;;;13.50;99.90;;;;;;5025842;28;20449;-76
2022/09/18 16:45:14;;;;;;;3.70;1.90;;;13.50;99.90;;;;;;5025911;28;20824;-77
2022/09/18 16:47:45;;;;;;;4.93;1.90;;;13.50;99.90;;;;;;5026798;28;20461;-77
2022/09/18 16:50:13;;;;;;;2.93;1.90;;;13.40;99.90;;;;;;5025586;28;20466;-75
2022/09/18 16:52:40;;;;;;;6.67;2.20;;;13.40;99.90;;;;;;5026318;28;20560;-77
2022/09/18 16:55:07;;;;;;;7.90;2.17;;;13.40;99.90;;;;;;5026354;28;20481;-78
2022/09/18 16:57:34;;;;;;;6.93;2.20;;;13.40;99.90;;;;;;5025969;28;21043;-76
2022/09/18 17:00:06;;;;;;;11.53;2.40;;;13.40;99.90;;;;;;5025372;28;20494;-77
2022/09/18 17:02:35;;;;;;;2.07;1.30;;;13.40;99.90;;;;;;5025476;28;20442;-77
2022/09/18 17:05:01;;;;;;;2.97;1.70;;;13.40;99.90;;;;;;5023562;28;20608;-76
2022/09/18 17:07:29;;;;;;;5.73;1.13;;;13.40;99.90;;;;;;5024310;28;20464;-75
2022/09/18 17:09:56;;;;;;;2.57;1.60;;;13.30;99.90;;;;;;5024428;28;20465;-73
2022/09/18 17:12:23;;;;;;;4.93;1.60;;;13.30;99.90;;;;;;5024522;28;20553;-76